Time;durP1;ratioP1;P1;durP2;ratioP2;P2;SDS_P1;SDS_P2;PMS_P1;PMS_P2;Temp;Humidity;BMP_temperature;BMP_pressure;BME280_temperature;BME280_humidity;BME280_pressure;Samples;Min_cycle;Max_cycle;Signal;HPM_P1;HPM_P2
2022/07/18 00:02:14;;;;;;;;;;;;;;;;;;5112754;28;20296;-68
2022/07/18 00:04:40;;;;;;;;;;;;;;;;;;5112487;28;19927;-68
2022/07/18 00:07:10;;;;;;;;;;;;;;;;;;5112531;28;19924;-68
2022/07/18 00:09:37;;;;;;;;;;;;;;;;;;5112897;28;20330;-68
2022/07/18 00:12:04;;;;;;;;;;;;;;;;;;5112650;28;19927;-68
2022/07/18 00:14:30;;;;;;;;;;;;;;;;;;5112567;28;20277;-68
2022/07/18 00:16:58;;;;;;;;;;;;;;;;;;5112446;28;19931;-67
2022/07/18 00:19:24;;;;;;;;;;;;;;;;;;5112304;28;19928;-68
2022/07/18 00:21:51;;;;;;;;;;;;;;;;;;5112571;28;19985;-67
2022/07/18 00:24:19;;;;;;;;;;;;;;;;;;5112762;28;19935;-66
2022/07/18 00:26:45;;;;;;;;;;;;;;;;;;5112413;28;20412;-67
2022/07/18 00:32:15;;;;;;;;;;;;;;;;;;5111182;28;19964;-67
2022/07/18 00:34:41;;;;;;;;;;;;;;;;;;5111966;28;19923;-67
2022/07/18 00:37:08;;;;;;;;;;;;;;;;;;5112126;28;19924;-67
2022/07/18 00:39:36;;;;;;;;;;;;;;;;;;5111948;28;20018;-67
2022/07/18 00:42:02;;;;;;;;;;;;;;;;;;5112229;28;19974;-67
2022/07/18 00:44:29;;;;;;;;;;;;;;;;;;5112382;28;19923;-66
2022/07/18 00:46:56;;;;;;;;;;;;;;;;;;5115904;28;19924;-67
2022/07/18 00:49:23;;;;;;;;;;;;;;;;;;5116040;28;19924;-67
2022/07/18 00:51:50;;;;;;;;;;;;;;;;;;5115894;28;19974;-68
2022/07/18 00:54:17;;;;;;;;;;;;;;;;;;5116421;28;20448;-67
2022/07/18 00:56:46;;;;;;;;;;;;;;;;;;5115883;28;19924;-68
2022/07/18 00:59:13;;;;;;;;;;;;;;;;;;5115996;28;19928;-67
2022/07/18 01:01:47;;;;;;;;;;;;;;;;;;5115880;28;20047;-67
2022/07/18 01:04:14;;;;;;;;;;;;;;;;;;5115704;28;19924;-67
2022/07/18 01:07:00;;;;;;;;;;;;;;;;;;5115413;28;20338;-66
2022/07/18 01:09:26;;;;;;;;;;;;;;;;;;5135183;27;20324;-68
2022/07/18 01:11:54;;;;;;;;;;;;;;;;;;5135985;27;19972;-67
2022/07/18 01:14:21;;;;;;;;;;;;;;;;;;5156319;22;19927;-83
2022/07/18 01:16:47;;;;;;;;;;;;;;;;;;5138584;27;20424;-82
2022/07/18 01:19:14;;;;;;;;;;;;;;;;;;5138589;27;20428;-82
2022/07/18 01:21:41;;;;;;;;;;;;;;;;;;5138240;27;20014;-82
2022/07/18 01:24:08;;;;;;;;;;;;;;;;;;5138359;27;20367;-82
2022/07/18 01:26:36;;;;;;;;;;;;;;;;;;5137943;27;19962;-82
2022/07/18 01:29:03;;;;;;;;;;;;;;;;;;5138500;27;20022;-82
2022/07/18 01:31:33;;;;;;;;;;;;;;;;;;5137137;27;20117;-81
2022/07/18 01:33:59;;;;;;;;;;;;;;;;;;5138272;27;19927;-83
2022/07/18 01:36:26;;;;;;;;;;;;;;;;;;5137994;27;19955;-81
2022/07/18 01:38:54;;;;;;;;;;;;;;;;;;5138602;27;19923;-82
2022/07/18 01:41:20;;;;;;;;;;;;;;;;;;5138019;27;20449;-83
2022/07/18 01:43:46;;;;;;;;;;;;;;;;;;5138095;27;19930;-83
2022/07/18 01:46:13;;;;;;;;;;;;;;;;;;5138693;27;20014;-82
2022/07/18 01:48:40;;;;;;;;;;;;;;;;;;5137859;27;20030;-83
2022/07/18 01:51:09;;;;;;;;;;;;;;;;;;5137192;27;19933;-82
2022/07/18 01:53:36;;;;;;;;;;;;;;;;;;5136878;27;19930;-81
2022/07/18 01:56:04;;;;;;;;;;;;;;;;;;5136901;27;19924;-80
2022/07/18 01:58:31;;;;;;;;;;;;;;;;;;5137180;27;19930;-81
2022/07/18 02:00:57;;;;;;;;;;;;;;;;;;5136852;27;19930;-81
2022/07/18 02:03:23;;;;;;;;;;;;;;;;;;5137205;27;20011;-83
2022/07/18 02:05:50;;;;;;;;;;;;;;;;;;5137008;27;19979;-81
2022/07/18 02:08:16;;;;;;;;;;;;;;;;;;5142181;27;19931;-82
2022/07/18 02:10:43;;;;;;;;;;;;;;;;;;5145832;27;20018;-80
2022/07/18 02:13:10;;;;;;;;;;;;;;;;;;5146174;27;19967;-80
2022/07/18 02:15:37;;;;;;;;;;;;;;;;;;5147318;27;19924;-80
2022/07/18 02:18:03;;;;;;;;;;;;;;;;;;5148289;27;19984;-80
2022/07/18 02:20:30;;;;;;;;;;;;;;;;;;5147870;27;19923;-82
2022/07/18 02:22:56;;;;;;;;;;;;;;;;;;5140489;27;19924;-80
2022/07/18 02:25:22;;;;;;;;;;;;;;;;;;5140000;27;19924;-81
2022/07/18 02:27:49;;;;;;;;;;;;;;;;;;5141873;27;19927;-83
2022/07/18 02:30:17;;;;;;;;;;;;;;;;;;5137933;27;19930;-82
2022/07/18 02:32:43;;;;;;;;;;;;;;;;;;5137983;27;20019;-82
2022/07/18 02:35:10;;;;;;;;;;;;;;;;;;5138820;27;19945;-81
2022/07/18 02:37:37;;;;;;;;;;;;;;;;;;5138403;27;19924;-81
2022/07/18 02:40:05;;;;;;;;;;;;;;;;;;5160114;27;19950;-82
2022/07/18 02:42:32;;;;;;;;;;;;;;;;;;5161081;27;19922;-85
2022/07/18 02:44:58;;;;;;;;;;;;;;;;;;5160683;27;19918;-85
2022/07/18 02:47:26;;;;;;;;;;;;;;;;;;5160153;27;19907;-83
2022/07/18 02:49:52;;;;;;;;;;;;;;;;;;5146614;27;19924;-81
2022/07/18 02:52:19;;;;;;;;;;;;;;;;;;5138730;27;20014;-81
2022/07/18 02:54:45;;;;;;;;;;;;;;;;;;5137850;27;19977;-82
2022/07/18 02:57:12;;;;;;;;;;;;;;;;;;5137696;27;19963;-81
2022/07/18 02:59:39;;;;;;;;;;;;;;;;;;5137280;27;19930;-82
2022/07/18 03:02:06;;;;;;;;;;;;;;;;;;5126598;27;20390;-83
2022/07/18 03:04:33;;;;;;;;;;;;;;;;;;5116849;28;20453;-83
2022/07/18 03:07:00;;;;;;;;;;;;;;;;;;5118193;28;20022;-81
2022/07/18 03:09:27;;;;;;;;;;;;;;;;;;5116781;28;19975;-82
2022/07/18 03:11:55;;;;;;;;;;;;;;;;;;5117937;28;19924;-82
2022/07/18 03:14:21;;;;;;;;;;;;;;;;;;5116592;28;19935;-82
2022/07/18 03:16:48;;;;;;;;;;;;;;;;;;5116644;28;19999;-81
2022/07/18 03:19:14;;;;;;;;;;;;;;;;;;5116638;28;19924;-79
2022/07/18 03:21:42;;;;;;;;;;;;;;;;;;5116387;28;19970;-84
2022/07/18 03:24:10;;;;;;;;;;;;;;;;;;5116460;28;19978;-83
2022/07/18 03:26:37;;;;;;;;;;;;;;;;;;5116182;28;19925;-81
2022/07/18 03:29:03;;;;;;;;;;;;;;;;;;5116601;28;19930;-83
2022/07/18 03:31:30;;;;;;;;;;;;;;;;;;5115719;28;20021;-83
2022/07/18 03:33:56;;;;;;;;;;;;;;;;;;5115877;28;19970;-81
2022/07/18 03:36:23;;;;;;;;;;;;;;;;;;5116209;28;19967;-80
2022/07/18 03:38:50;;;;;;;;;;;;;;;;;;5116048;28;20003;-82
2022/07/18 03:41:17;;;;;;;;;;;;;;;;;;5115919;28;20015;-82
2022/07/18 03:43:43;;;;;;;;;;;;;;;;;;5115975;28;19976;-82
2022/07/18 03:46:10;;;;;;;;;;;;;;;;;;5115457;28;19977;-83
2022/07/18 03:48:36;;;;;;;;;;;;;;;;;;5115185;28;20357;-83
2022/07/18 03:51:03;;;;;;;;;;;;;;;;;;5115280;28;19959;-82
2022/07/18 03:53:30;;;;;;;;;;;;;;;;;;5115482;28;19963;-83
2022/07/18 03:55:58;;;;;;;;;;;;;;;;;;5115663;28;19967;-81
2022/07/18 03:58:24;;;;;;;;;;;;;;;;;;5115349;28;19978;-82
2022/07/18 04:00:51;;;;;;;;;;;;;;;;;;5115265;28;19934;-83
2022/07/18 04:03:17;;;;;;;;;;;;;;;;;;5115077;28;20002;-82
2022/07/18 04:05:44;;;;;;;;;;;;;;;;;;5116986;28;19970;-83
2022/07/18 04:08:10;;;;;;;;;;;;;;;;;;5118876;28;19929;-83
2022/07/18 04:10:39;;;;;;;;;;;;;;;;;;5120180;28;20022;-81
2022/07/18 04:13:08;;;;;;;;;;;;;;;;;;5120776;28;19945;-81
2022/07/18 04:15:34;;;;;;;;;;;;;;;;;;5124056;28;19962;-81
2022/07/18 04:18:01;;;;;;;;;;;;;;;;;;5121721;28;19975;-81
2022/07/18 04:20:27;;;;;;;;;;;;;;;;;;5124978;28;19924;-81
2022/07/18 04:22:55;;;;;;;;;;;;;;;;;;5126099;28;19970;-81
2022/07/18 04:25:22;;;;;;;;;;;;;;;;;;5125271;28;19962;-81
2022/07/18 04:27:49;;;;;;;;;;;;;;;;;;5124643;28;19946;-81
2022/07/18 04:30:18;;;;;;;;;;;;;;;;;;5120459;28;20394;-82
2022/07/18 04:32:45;;;;;;;;;;;;;;;;;;5120473;28;19971;-81
2022/07/18 04:35:12;;;;;;;;;;;;;;;;;;5120480;28;20386;-81
2022/07/18 04:37:38;;;;;;;;;;;;;;;;;;5118998;28;19931;-81
2022/07/18 04:40:06;;;;;;;;;;;;;;;;;;5120088;28;19967;-82
2022/07/18 04:42:32;;;;;;;;;;;;;;;;;;5119538;28;20007;-80
2022/07/18 04:44:59;;;;;;;;;;;;;;;;;;5119231;28;20414;-81
2022/07/18 04:47:27;;;;;;;;;;;;;;;;;;5119380;28;19963;-80
2022/07/18 04:49:54;;;;;;;;;;;;;;;;;;5121938;28;19969;-83
2022/07/18 04:52:20;;;;;;;;;;;;;;;;;;5123716;28;19934;-83
2022/07/18 04:54:47;;;;;;;;;;;;;;;;;;5123956;28;20032;-82
2022/07/18 04:57:14;;;;;;;;;;;;;;;;;;5122453;28;19943;-82
2022/07/18 04:59:41;;;;;;;;;;;;;;;;;;5128477;28;19928;-82
2022/07/18 05:02:07;;;;;;;;;;;;;;;;;;5129192;28;19923;-82
2022/07/18 05:04:35;;;;;;;;;;;;;;;;;;5127316;28;19928;-81
2022/07/18 05:07:02;;;;;;;;;;;;;;;;;;5125571;28;20301;-82
2022/07/18 05:09:29;;;;;;;;;;;;;;;;;;5125368;28;20356;-82
2022/07/18 05:11:56;;;;;;;;;;;;;;;;;;5125873;28;19963;-82
2022/07/18 05:14:22;;;;;;;;;;;;;;;;;;5124354;28;20022;-82
2022/07/18 05:16:49;;;;;;;;;;;;;;;;;;5124833;28;20374;-82
2022/07/18 05:19:15;;;;;;;;;;;;;;;;;;5119080;28;19949;-83
2022/07/18 05:21:44;;;;;;;;;;;;;;;;;;5122403;28;20022;-82
2022/07/18 05:24:10;;;;;;;;;;;;;;;;;;5121584;28;19967;-81
2022/07/18 05:26:36;;;;;;;;;;;;;;;;;;5121473;28;20397;-82
2022/07/18 05:29:03;;;;;;;;;;;;;;;;;;5122002;28;19931;-82
2022/07/18 05:31:29;;;;;;;;;;;;;;;;;;5127175;28;19975;-83
2022/07/18 05:33:56;;;;;;;;;;;;;;;;;;5123370;28;19931;-82
2022/07/18 05:36:22;;;;;;;;;;;;;;;;;;5123109;28;20308;-82
2022/07/18 05:38:50;;;;;;;;;;;;;;;;;;5124357;28;20344;-83
2022/07/18 05:41:17;;;;;;;;;;;;;;;;;;5123248;28;19963;-82
2022/07/18 05:43:43;;;;;;;;;;;;;;;;;;5123119;28;19923;-82
2022/07/18 05:46:10;;;;;;;;;;;;;;;;;;5121454;28;20503;-82
2022/07/18 05:48:36;;;;;;;;;;;;;;;;;;5122785;28;19930;-82
2022/07/18 05:51:03;;;;;;;;;;;;;;;;;;5120532;28;19923;-82
2022/07/18 05:53:29;;;;;;;;;;;;;;;;;;5120159;28;19930;-82
2022/07/18 05:55:57;;;;;;;;;;;;;;;;;;5122762;28;20003;-82
2022/07/18 05:58:23;;;;;;;;;;;;;;;;;;5120897;28;19930;-83
2022/07/18 06:00:50;;;;;;;;;;;;;;;;;;5109907;28;19969;-81
2022/07/18 06:03:16;;;;;;;;;;;;;;;;;;5104027;28;19967;-82
2022/07/18 06:05:43;;;;;;;;;;;;;;;;;;5105711;28;19967;-82
2022/07/18 06:08:09;;;;;;;;;;;;;;;;;;5102051;28;19924;-83
2022/07/18 06:10:36;;;;;;;;;;;;;;;;;;5101569;28;19924;-83
2022/07/18 06:13:04;;;;;;;;;;;;;;;;;;5099626;28;20413;-82
2022/07/18 06:15:30;;;;;;;;;;;;;;;;;;5100690;28;19924;-81
2022/07/18 06:17:57;;;;;;;;;;;;;;;;;;5100254;28;19979;-81
2022/07/18 06:20:23;;;;;;;;;;;;;;;;;;5100829;28;19964;-83
2022/07/18 06:22:50;;;;;;;;;;;;;;;;;;5100270;28;19924;-82
2022/07/18 06:25:16;;;;;;;;;;;;;;;;;;5099479;28;19970;-81
2022/07/18 06:27:43;;;;;;;;;;;;;;;;;;5099536;28;19967;-82
2022/07/18 06:30:11;;;;;;;;;;;;;;;;;;5100733;28;20383;-81
2022/07/18 06:32:38;;;;;;;;;;;;;;;;;;5101267;28;20382;-82
2022/07/18 06:35:05;;;;;;;;;;;;;;;;;;5113229;28;19963;-82
2022/07/18 06:37:32;;;;;;;;;;;;;;;;;;5123224;28;20117;-81
2022/07/18 06:39:58;;;;;;;;;;;;;;;;;;5122796;28;19928;-81
2022/07/18 06:42:24;;;;;;;;;;;;;;;;;;5121713;28;19976;-82
2022/07/18 06:44:51;;;;;;;;;;;;;;;;;;5122843;28;19979;-81
2022/07/18 06:47:19;;;;;;;;;;;;;;;;;;5121063;28;19959;-83
2022/07/18 06:49:45;;;;;;;;;;;;;;;;;;5121524;28;19930;-82
2022/07/18 06:52:14;;;;;;;;;;;;;;;;;;5121731;28;20000;-81
2022/07/18 06:54:40;;;;;;;;;;;;;;;;;;5118659;28;19924;-83
2022/07/18 06:57:09;;;;;;;;;;;;;;;;;;5115319;28;19943;-83
2022/07/18 06:59:35;;;;;;;;;;;;;;;;;;5115534;27;19923;-80
2022/07/18 07:02:02;;;;;;;;;;;;;;;;;;5119446;28;19978;-82
2022/07/18 07:04:30;;;;;;;;;;;;;;;;;;5121322;28;19972;-82
2022/07/18 07:06:56;;;;;;;;;;;;;;;;;;5119392;28;19959;-83
2022/07/18 07:09:23;;;;;;;;;;;;;;;;;;5119586;28;19981;-82
2022/07/18 07:11:49;;;;;;;;;;;;;;;;;;5119620;28;19923;-83
2022/07/18 07:14:16;;;;;;;;;;;;;;;;;;5117818;28;19924;-82
2022/07/18 07:16:42;;;;;;;;;;;;;;;;;;5115127;28;20035;-82
2022/07/18 07:19:09;;;;;;;;;;;;;;;;;;5116398;28;19970;-82
2022/07/18 07:21:36;;;;;;;;;;;;;;;;;;5098359;28;20463;-81
2022/07/18 07:24:03;;;;;;;;;;;;;;;;;;5093652;28;20019;-81
2022/07/18 07:26:29;;;;;;;;;;;;;;;;;;5094710;28;20369;-80
2022/07/18 07:28:56;;;;;;;;;;;;;;;;;;5096891;28;19924;-81
2022/07/18 07:31:22;;;;;;;;;;;;;;;;;;5097307;28;19928;-82
2022/07/18 07:33:49;;;;;;;;;;;;;;;;;;5096011;28;19967;-80
2022/07/18 07:36:16;;;;;;;;;;;;;;;;;;5096869;28;19955;-79
2022/07/18 07:38:43;;;;;;;;;;;;;;;;;;5094322;28;19947;-79
2022/07/18 07:41:13;;;;;;;;;;;;;;;;;;5095099;28;19967;-80
2022/07/18 07:43:39;;;;;;;;;;;;;;;;;;5094137;28;19924;-80
2022/07/18 07:46:06;;;;;;;;;;;;;;;;;;5094844;28;20002;-79
2022/07/18 07:48:32;;;;;;;;;;;;;;;;;;5093957;28;19989;-79
2022/07/18 07:50:59;;;;;;;;;;;;;;;;;;5095345;28;20000;-80
2022/07/18 07:53:25;;;;;;;;;;;;;;;;;;5095871;28;19959;-80
2022/07/18 07:55:53;;;;;;;;;;;;;;;;;;5095006;28;19959;-80
2022/07/18 07:58:20;;;;;;;;;;;;;;;;;;5096739;28;19963;-82
2022/07/18 08:00:46;;;;;;;;;;;;;;;;;;5110925;28;19958;-82
2022/07/18 08:03:13;;;;;;;;;;;;;;;;;;5117411;28;19954;-80
2022/07/18 08:05:44;;;;;;;;;;;;;;;;;;5116483;28;19951;-80
2022/07/18 08:08:11;;;;;;;;;;;;;;;;;;5114519;28;20295;-82
2022/07/18 08:10:37;;;;;;;;;;;;;;;;;;5114889;28;19967;-80
2022/07/18 08:13:05;;;;;;;;;;;;;;;;;;5115631;28;19982;-82
2022/07/18 08:15:32;;;;;;;;;;;;;;;;;;5116551;28;20455;-80
2022/07/18 08:17:58;;;;;;;;;;;;;;;;;;5115440;28;19962;-81
2022/07/18 08:20:25;;;;;;;;;;;;;;;;;;5115207;28;19959;-82
2022/07/18 08:22:55;;;;;;;;;;;;;;;;;;5120152;28;20543;-82
2022/07/18 08:25:22;;;;;;;;;;;;;;;;;;5117638;28;20014;-82
2022/07/18 08:27:49;;;;;;;;;;;;;;;;;;5118487;28;20335;-81
2022/07/18 08:30:17;;;;;;;;;;;;;;;;;;5118294;28;19928;-83
2022/07/18 08:32:44;;;;;;;;;;;;;;;;;;5117496;28;19995;-80
2022/07/18 08:35:11;;;;;;;;;;;;;;;;;;5122199;28;19967;-82
2022/07/18 08:37:37;;;;;;;;;;;;;;;;;;5119789;28;20332;-81
2022/07/18 08:40:04;;;;;;;;;;;;;;;;;;5122709;28;19935;-80
2022/07/18 08:42:32;;;;;;;;;;;;;;;;;;5120704;28;20308;-80
2022/07/18 08:44:59;;;;;;;;;;;;;;;;;;5118222;28;19924;-81
2022/07/18 08:47:28;;;;;;;;;;;;;;;;;;5115958;28;19987;-82
2022/07/18 08:49:55;;;;;;;;;;;;;;;;;;5115765;28;19924;-81
2022/07/18 08:52:22;;;;;;;;;;;;;;;;;;5115829;28;20394;-80
2022/07/18 08:54:49;;;;;;;;;;;;;;;;;;5121799;28;19951;-80
2022/07/18 08:57:16;;;;;;;;;;;;;;;;;;5121370;28;19924;-79
2022/07/18 08:59:42;;;;;;;;;;;;;;;;;;5111221;28;19967;-80
2022/07/18 09:02:09;;;;;;;;;;;;;;;;;;5116136;28;19928;-79
2022/07/18 09:04:38;;;;;;;;;;;;;;;;;;5120264;28;19969;-78
2022/07/18 09:07:04;;;;;;;;;;;;;;;;;;5125686;28;19928;-79
2022/07/18 09:09:31;;;;;;;;;;;;;;;;;;5119105;28;19931;-78
2022/07/18 09:11:59;;;;;;;;;;;;;;;;;;5122421;28;19952;-80
2022/07/18 09:14:29;;;;;;;;;;;;;;;;;;5123300;28;19931;-80
2022/07/18 09:17:00;;;;;;;;;;;;;;;;;;5123167;28;19924;-80
2022/07/18 09:19:26;;;;;;;;;;;;;;;;;;5120254;28;19930;-80
2022/07/18 09:21:54;;;;;;;;;;;;;;;;;;5122236;28;19963;-80
2022/07/18 09:24:21;;;;;;;;;;;;;;;;;;5124032;28;19930;-79
2022/07/18 09:26:50;;;;;;;;;;;;;;;;;;5127538;28;20018;-80
2022/07/18 09:29:17;;;;;;;;;;;;;;;;;;5125352;28;19924;-80
2022/07/18 09:31:48;;;;;;;;;;;;;;;;;;5127716;28;20209;-80
2022/07/18 09:34:15;;;;;;;;;;;;;;;;;;5129207;28;20010;-81
2022/07/18 09:36:55;;;;;;;;;;;;;;;;;;5121184;28;19924;-80
2022/07/18 09:39:22;;;;;;;;;;;;;;;;;;5121565;28;19924;-81
2022/07/18 09:41:48;;;;;;;;;;;;;;;;;;5120993;28;19981;-80
2022/07/18 09:44:15;;;;;;;;;;;;;;;;;;5122127;28;19923;-80
2022/07/18 09:46:59;;;;;;;;;;;;;;;;;;5123391;28;20014;-81
2022/07/18 09:49:29;;;;;;;;;;;;;;;;;;5122699;28;19923;-79
2022/07/18 09:52:05;;;;;;;;;;;;;;;;;;5120820;28;19969;-79
2022/07/18 09:54:39;;;;;;;;;;;;;;;;;;5120202;28;19928;-79
2022/07/18 10:03:11;;;;;;;;;;;;;;;;;;5118406;28;19922;-80
2022/07/18 10:05:39;;;;;;;;;;;;;;;;;;5123300;28;19982;-79
2022/07/18 10:08:07;;;;;;;;;;;;;;;;;;5124001;28;20398;-80
2022/07/18 10:10:34;;;;;;;;;;;;;;;;;;5124230;28;19962;-80
2022/07/18 10:13:01;;;;;;;;;;;;;;;;;;5121700;28;19927;-79
2022/07/18 10:15:28;;;;;;;;;;;;;;;;;;5120681;28;19924;-79
2022/07/18 10:17:55;;;;;;;;;;;;;;;;;;5121600;28;20402;-79
2022/07/18 10:20:32;;;;;;;;;;;;;;;;;;5128790;28;19955;-79
2022/07/18 10:23:01;;;;;;;;;;;;;;;;;;5131559;28;20010;-79
2022/07/18 10:25:29;;;;;;;;;;;;;;;;;;5137512;28;19920;-78
2022/07/18 10:28:03;;;;;;;;;;;;;;;;;;5137397;28;20152;-78
2022/07/18 10:30:31;;;;;;;;;;;;;;;;;;5135839;28;19924;-79
2022/07/18 10:32:58;;;;;;;;;;;;;;;;;;5131389;28;20381;-79
2022/07/18 10:35:39;;;;;;;;;;;;;;;;;;5124002;28;20014;-79
2022/07/18 10:38:19;;;;;;;;;;;;;;;;;;5121014;28;19970;-80
2022/07/18 10:41:01;;;;;;;;;;;;;;;;;;5120266;28;20023;-80
2022/07/18 10:43:38;;;;;;;;;;;;;;;;;;5120477;28;19930;-81
2022/07/18 10:46:05;;;;;;;;;;;;;;;;;;5119255;28;20674;-80
2022/07/18 10:48:50;;;;;;;;;;;;;;;;;;5123751;28;20417;-80
2022/07/18 10:51:17;;;;;;;;;;;;;;;;;;5126540;28;19963;-80
2022/07/18 10:53:56;;;;;;;;;;;;;;;;;;5125966;28;19954;-80
2022/07/18 10:56:46;;;;;;;;;;;;;;;;;;5125906;28;20601;-78
2022/07/18 10:59:17;;;;;;;;;;;;;;;;;;5127189;28;19931;-79
2022/07/18 11:01:48;;;;;;;;;;;;;;;;;;5128402;28;19987;-79
2022/07/18 11:04:24;;;;;;;;;;;;;;;;;;5128759;28;19968;-79
2022/07/18 11:07:14;;;;;;;;;;;;;;;;;;5128476;28;19930;-78
2022/07/18 11:09:41;;;;;;;;;;;;;;;;;;5107117;28;19931;-78
2022/07/18 11:12:20;;;;;;;;;;;;;;;;;;5119126;28;19928;-78
2022/07/18 11:14:59;;;;;;;;;;;;;;;;;;5118397;28;19928;-79
2022/07/18 11:17:40;;;;;;;;;;;;;;;;;;5099306;28;19928;-79
2022/07/18 11:20:24;;;;;;;;;;;;;;;;;;5104798;28;20547;-79
2022/07/18 11:22:51;;;;;;;;;;;;;;;;;;5105968;28;19924;-80
2022/07/18 11:25:18;;;;;;;;;;;;;;;;;;5106332;28;19924;-78
2022/07/18 11:27:46;;;;;;;;;;;;;;;;;;5106379;28;19925;-78
2022/07/18 11:30:16;;;;;;;;;;;;;;;;;;5103270;28;19989;-80
2022/07/18 11:32:43;;;;;;;;;;;;;;;;;;5106065;28;19950;-78
2022/07/18 11:35:10;;;;;;;;;;;;;;;;;;5105637;28;20435;-79
2022/07/18 11:37:37;;;;;;;;;;;;;;;;;;5106432;28;19924;-79
2022/07/18 11:40:07;;;;;;;;;;;;;;;;;;5106243;28;20016;-79
2022/07/18 11:42:37;;;;;;;;;;;;;;;;;;5101153;28;19948;-79
2022/07/18 11:45:06;;;;;;;;;;;;;;;;;;5095710;28;19928;-78
2022/07/18 11:47:37;;;;;;;;;;;;;;;;;;5095460;28;19924;-77
2022/07/18 11:50:04;;;;;;;;;;;;;;;;;;5102110;28;20379;-77
2022/07/18 11:52:32;;;;;;;;;;;;;;;;;;5095800;28;19924;-77
2022/07/18 11:55:00;;;;;;;;;;;;;;;;;;5104438;28;19955;-76
2022/07/18 11:57:27;;;;;;;;;;;;;;;;;;5117258;28;20389;-77
2022/07/18 11:59:54;;;;;;;;;;;;;;;;;;5119544;28;19950;-77
2022/07/18 12:02:35;;;;;;;;;;;;;;;;;;5116832;28;19956;-77
2022/07/18 12:05:03;;;;;;;;;;;;;;;;;;5088043;28;20018;-75
2022/07/18 12:07:29;;;;;;;;;;;;;;;;;;5112455;28;19931;-80
2022/07/18 12:09:56;;;;;;;;;;;;;;;;;;5117169;28;19989;-76
2022/07/18 12:12:23;;;;;;;;;;;;;;;;;;5119419;28;20007;-76
2022/07/18 12:14:56;;;;;;;;;;;;;;;;;;5118480;28;19963;-77
2022/07/18 12:17:23;;;;;;;;;;;;;;;;;;5118132;28;20273;-77
2022/07/18 12:19:50;;;;;;;;;;;;;;;;;;5117123;28;19978;-77
2022/07/18 12:22:17;;;;;;;;;;;;;;;;;;5111286;28;19977;-77
2022/07/18 12:24:52;;;;;;;;;;;;;;;;;;5110496;28;19945;-77
2022/07/18 12:27:19;;;;;;;;;;;;;;;;;;5110625;28;19959;-77
2022/07/18 12:29:58;;;;;;;;;;;;;;;;;;5110458;28;20495;-76
2022/07/18 12:32:25;;;;;;;;;;;;;;;;;;5111359;28;19990;-76
2022/07/18 12:34:55;;;;;;;;;;;;;;;;;;5112114;28;20010;-76
2022/07/18 12:37:25;;;;;;;;;;;;;;;;;;5117116;28;20420;-77
2022/07/18 12:39:56;;;;;;;;;;;;;;;;;;5115884;28;20372;-76
2022/07/18 12:42:28;;;;;;;;;;;;;;;;;;5120901;28;19974;-77
2022/07/18 12:44:54;;;;;;;;;;;;;;;;;;5121227;28;19924;-76
2022/07/18 12:47:21;;;;;;;;;;;;;;;;;;5122125;28;19951;-77
2022/07/18 12:49:47;;;;;;;;;;;;;;;;;;5121716;28;20386;-76
2022/07/18 12:52:14;;;;;;;;;;;;;;;;;;5121151;28;20287;-77
2022/07/18 12:54:42;;;;;;;;;;;;;;;;;;5116956;28;20338;-77
2022/07/18 12:57:08;;;;;;;;;;;;;;;;;;5114939;28;19923;-77
2022/07/18 12:59:35;;;;;;;;;;;;;;;;;;5114401;28;19982;-77
2022/07/18 13:02:01;;;;;;;;;;;;;;;;;;5114351;28;19930;-77
2022/07/18 13:04:28;;;;;;;;;;;;;;;;;;5116726;28;19963;-76
2022/07/18 13:06:54;;;;;;;;;;;;;;;;;;5114314;28;19924;-76
2022/07/18 13:09:21;;;;;;;;;;;;;;;;;;5114521;28;20372;-77
2022/07/18 13:11:49;;;;;;;;;;;;;;;;;;5114630;28;19930;-77
2022/07/18 13:14:16;;;;;;;;;;;;;;;;;;5114303;28;19966;-76
2022/07/18 13:16:45;;;;;;;;;;;;;;;;;;5115129;28;20533;-76
2022/07/18 13:19:11;;;;;;;;;;;;;;;;;;5130813;22;19988;-77
2022/07/18 13:21:38;;;;;;;;;;;;;;;;;;5134832;27;19923;-77
2022/07/18 13:24:05;;;;;;;;;;;;;;;;;;5134939;27;20590;-77
2022/07/18 13:26:31;;;;;;;;;;;;;;;;;;5134901;27;19997;-78
2022/07/18 13:28:59;;;;;;;;;;;;;;;;;;5134383;27;20002;-78
2022/07/18 13:31:26;;;;;;;;;;;;;;;;;;5134248;27;20266;-78
2022/07/18 13:33:52;;;;;;;;;;;;;;;;;;5134908;27;19923;-77
2022/07/18 13:36:19;;;;;;;;;;;;;;;;;;5134445;27;20018;-78
2022/07/18 13:38:46;;;;;;;;;;;;;;;;;;5134337;27;19959;-78
2022/07/18 13:41:13;;;;;;;;;;;;;;;;;;5134304;27;19976;-77
2022/07/18 13:43:40;;;;;;;;;;;;;;;;;;5134907;27;19924;-78
2022/07/18 13:46:08;;;;;;;;;;;;;;;;;;5134795;27;20450;-77
2022/07/18 13:48:34;;;;;;;;;;;;;;;;;;5134727;27;20403;-77
2022/07/18 13:51:01;;;;;;;;;;;;;;;;;;5134147;27;19963;-77
2022/07/18 13:53:28;;;;;;;;;;;;;;;;;;5134197;27;19975;-77
2022/07/18 13:55:54;;;;;;;;;;;;;;;;;;5134513;27;19972;-78
2022/07/18 13:58:29;;;;;;;;;;;;;;;;;;5134572;27;19930;-78
2022/07/18 14:00:56;;;;;;;;;;;;;;;;;;5120846;27;19924;-77
2022/07/18 14:03:24;;;;;;;;;;;;;;;;;;5114506;28;20454;-77
2022/07/18 14:05:50;;;;;;;;;;;;;;;;;;5114044;28;19969;-77
2022/07/18 14:08:17;;;;;;;;;;;;;;;;;;5114271;28;19923;-77
2022/07/18 14:10:43;;;;;;;;;;;;;;;;;;5113556;28;19999;-78
2022/07/18 14:13:10;;;;;;;;;;;;;;;;;;5114635;28;20023;-77
2022/07/18 14:15:36;;;;;;;;;;;;;;;;;;5112677;28;20002;-78
2022/07/18 14:18:06;;;;;;;;;;;;;;;;;;5113109;28;20619;-77
2022/07/18 14:20:34;;;;;;;;;;;;;;;;;;5113800;28;19931;-77
2022/07/18 14:23:00;;;;;;;;;;;;;;;;;;5113844;28;20015;-77
2022/07/18 14:25:27;;;;;;;;;;;;;;;;;;5113811;28;20006;-77
2022/07/18 14:27:53;;;;;;;;;;;;;;;;;;5115091;28;19970;-78
2022/07/18 14:30:20;;;;;;;;;;;;;;;;;;5124211;28;19931;-78
2022/07/18 14:32:46;;;;;;;;;;;;;;;;;;5114630;28;20416;-77
2022/07/18 14:35:13;;;;;;;;;;;;;;;;;;5114436;28;20653;-78
2022/07/18 14:37:41;;;;;;;;;;;;;;;;;;5115132;28;19975;-77
2022/07/18 14:40:08;;;;;;;;;;;;;;;;;;5118595;28;19971;-78
2022/07/18 14:42:34;;;;;;;;;;;;;;;;;;5115732;28;20011;-78
2022/07/18 14:45:01;;;;;;;;;;;;;;;;;;5115636;28;19924;-78
2022/07/18 14:47:27;;;;;;;;;;;;;;;;;;5114502;28;19957;-78
2022/07/18 14:49:54;;;;;;;;;;;;;;;;;;5114705;28;19923;-78
2022/07/18 14:52:20;;;;;;;;;;;;;;;;;;5115224;28;20023;-79
2022/07/18 14:54:48;;;;;;;;;;;;;;;;;;5115634;28;20454;-78
2022/07/18 14:57:16;;;;;;;;;;;;;;;;;;5117115;28;20398;-78
2022/07/18 14:59:42;;;;;;;;;;;;;;;;;;5110070;28;19974;-78
2022/07/18 15:02:09;;;;;;;;;;;;;;;;;;5093849;28;19967;-77
2022/07/18 15:04:36;;;;;;;;;;;;;;;;;;5092470;28;19924;-78
2022/07/18 15:07:03;;;;;;;;;;;;;;;;;;5095496;28;19930;-78
2022/07/18 15:09:32;;;;;;;;;;;;;;;;;;5096373;28;20432;-78
2022/07/18 15:12:03;;;;;;;;;;;;;;;;;;5097589;28;19955;-78
2022/07/18 15:14:29;;;;;;;;;;;;;;;;;;5100269;28;20015;-79
2022/07/18 15:16:56;;;;;;;;;;;;;;;;;;5116547;28;20169;-78
2022/07/18 15:19:22;;;;;;;;;;;;;;;;;;5116155;28;19982;-76
2022/07/18 15:21:49;;;;;;;;;;;;;;;;;;5115743;28;19924;-76
2022/07/18 15:24:15;;;;;;;;;;;;;;;;;;5117026;28;19971;-76
2022/07/18 15:26:42;;;;;;;;;;;;;;;;;;5118139;28;19943;-77
2022/07/18 15:29:10;;;;;;;;;;;;;;;;;;5116349;28;19977;-77
2022/07/18 15:31:37;;;;;;;;;;;;;;;;;;5118247;28;19981;-77
2022/07/18 15:34:04;;;;;;;;;;;;;;;;;;5124720;28;19924;-77
2022/07/18 15:36:30;;;;;;;;;;;;;;;;;;5134077;28;19919;-78
2022/07/18 15:38:57;;;;;;;;;;;;;;;;;;5134336;28;19934;-76
2022/07/18 15:41:23;;;;;;;;;;;;;;;;;;5132776;28;19927;-77
2022/07/18 15:43:50;;;;;;;;;;;;;;;;;;5130909;28;20436;-78
2022/07/18 15:46:40;;;;;;;;;;;;;;;;;;5132737;28;19959;-77
2022/07/18 15:49:08;;;;;;;;;;;;;;;;;;5134190;28;19923;-78
2022/07/18 15:51:34;;;;;;;;;;;;;;;;;;5134671;28;19950;-77
2022/07/18 15:54:01;;;;;;;;;;;;;;;;;;5134944;28;19924;-77
2022/07/18 15:56:28;;;;;;;;;;;;;;;;;;5134101;28;19927;-78
2022/07/18 15:58:54;;;;;;;;;;;;;;;;;;5129588;28;19931;-78
2022/07/18 16:01:21;;;;;;;;;;;;;;;;;;5127483;28;19963;-76
2022/07/18 16:03:47;;;;;;;;;;;;;;;;;;5135094;28;19974;-77
2022/07/18 16:06:15;;;;;;;;;;;;;;;;;;5134563;28;19912;-77
2022/07/18 16:08:41;;;;;;;;;;;;;;;;;;5133968;28;19977;-76
2022/07/18 16:11:08;;;;;;;;;;;;;;;;;;5134497;28;19931;-77
2022/07/18 16:13:34;;;;;;;;;;;;;;;;;;5135957;28;19911;-77
2022/07/18 16:16:01;;;;;;;;;;;;;;;;;;5141097;28;19935;-77
2022/07/18 16:18:27;;;;;;;;;;;;;;;;;;5137313;28;19927;-76
2022/07/18 16:20:54;;;;;;;;;;;;;;;;;;5126111;28;19951;-77
2022/07/18 16:23:22;;;;;;;;;;;;;;;;;;5124470;28;19974;-77
2022/07/18 16:25:48;;;;;;;;;;;;;;;;;;5124704;28;19951;-77
2022/07/18 16:28:15;;;;;;;;;;;;;;;;;;5124381;28;19947;-77
2022/07/18 16:30:41;;;;;;;;;;;;;;;;;;5124667;28;19931;-77
2022/07/18 16:33:07;;;;;;;;;;;;;;;;;;5123949;28;19974;-78
2022/07/18 16:35:34;;;;;;;;;;;;;;;;;;5126555;28;19932;-77
2022/07/18 16:38:00;;;;;;;;;;;;;;;;;;5123773;28;19949;-77
2022/07/18 16:40:29;;;;;;;;;;;;;;;;;;5123572;28;19927;-77
2022/07/18 16:42:56;;;;;;;;;;;;;;;;;;5121736;28;19974;-77
2022/07/18 16:45:24;;;;;;;;;;;;;;;;;;5123939;28;19924;-77
2022/07/18 16:47:50;;;;;;;;;;;;;;;;;;5120881;28;19984;-77
2022/07/18 16:50:17;;;;;;;;;;;;;;;;;;5119552;28;20007;-77
2022/07/18 16:52:44;;;;;;;;;;;;;;;;;;5119262;28;19980;-77
2022/07/18 16:55:11;;;;;;;;;;;;;;;;;;5120119;28;20549;-77
2022/07/18 16:57:39;;;;;;;;;;;;;;;;;;5119636;28;19967;-78
2022/07/18 17:00:07;;;;;;;;;;;;;;;;;;5118758;28;20509;-77